Time;durP1;ratioP1;P1;durP2;ratioP2;P2;SDS_P1;SDS_P2;PMS_P1;PMS_P2;Temp;Humidity;BMP_temperature;BMP_pressure;BME280_temperature;BME280_humidity;BME280_pressure;Samples;Min_cycle;Max_cycle;Signal;HPM_P1;HPM_P2
2022/11/05 00:09:33;;;;;;;17.77;12.70;;;;;;;;;;5050987;28;20205;-80
2022/11/05 00:17:30;;;;;;;17.20;12.57;;;;;;;;;;5050729;28;20234;-80
2022/11/05 00:19:59;;;;;;;20.80;13.07;;;;;;;;;;5050758;28;20631;-80
2022/11/05 00:25:18;;;;;;;21.40;13.57;;;;;;;;;;5050576;28;20237;-80
2022/11/05 00:27:47;;;;;;;18.90;12.97;;;;;;;;;;5050477;28;20592;-80
2022/11/05 00:30:16;;;;;;;16.00;13.33;;;;;;;;;;5050760;28;20209;-80
2022/11/05 00:32:44;;;;;;;14.00;12.50;;;;;;;;;;5050778;28;20240;-80
2022/11/05 00:35:12;;;;;;;17.43;12.47;;;;;;;;;;5050231;28;20205;-80
2022/11/05 00:37:39;;;;;;;15.47;12.80;;;;;;;;;;5050620;28;20206;-80
2022/11/05 00:40:07;;;;;;;15.00;12.40;;;;;;;;;;5050702;28;20206;-80
2022/11/05 00:45:18;;;;;;;16.47;11.57;;;;;;;;;;5047594;28;20232;-80
2022/11/05 00:50:31;;;;;;;17.33;13.00;;;;;;;;;;5050273;28;20204;-80
2022/11/05 00:52:59;;;;;;;16.17;13.20;;;;;;;;;;5050473;28;20575;-80
2022/11/05 00:55:33;;;;;;;17.57;13.20;;;;;;;;;;5049928;28;20205;-80
2022/11/05 00:58:00;;;;;;;20.00;13.27;;;;;;;;;;5050305;28;20198;-79
2022/11/05 01:00:28;;;;;;;20.37;13.23;;;;;;;;;;5050443;28;20201;-80
2022/11/05 01:02:58;;;;;;;17.33;13.40;;;;;;;;;;5050584;28;20255;-80
2022/11/05 01:05:25;;;;;;;19.27;13.40;;;;;;;;;;5049871;28;20257;-80
2022/11/05 01:07:53;;;;;;;16.87;14.07;;;;;;;;;;5050604;28;20201;-80
2022/11/05 01:10:20;;;;;;;19.13;13.23;;;;;;;;;;5049921;28;20198;-80
2022/11/05 01:12:47;;;;;;;17.13;13.13;;;;;;;;;;5050396;28;20202;-79
2022/11/05 01:15:14;;;;;;;17.43;13.13;;;;;;;;;;5050131;28;20700;-80
2022/11/05 01:17:41;;;;;;;18.03;12.17;;;;;;;;;;5050020;28;20200;-80
2022/11/05 01:20:09;;;;;;;16.90;12.67;;;;;;;;;;5050243;28;20209;-80
2022/11/05 01:22:36;;;;;;;13.80;11.97;;;;;;;;;;5050219;28;20229;-79
2022/11/05 01:25:06;;;;;;;19.50;14.07;;;;;;;;;;5049892;28;20272;-80
2022/11/05 01:27:32;;;;;;;14.73;12.37;;;;;;;;;;5050149;28;20677;-80
2022/11/05 01:29:59;;;;;;;17.30;12.77;;;;;;;;;;5050111;28;20677;-80
2022/11/05 01:32:26;;;;;;;19.73;12.87;;;;;;;;;;5050386;28;20205;-80
2022/11/05 01:34:53;;;;;;;15.63;13.10;;;;;;;;;;5049985;28;20205;-80
2022/11/05 01:37:20;;;;;;;17.00;14.40;;;;;;;;;;5050005;28;20214;-80
2022/11/05 01:39:46;;;;;;;14.37;11.93;;;;;;;;;;5049513;28;20224;-80
2022/11/05 01:42:20;;;;;;;16.30;12.50;;;;;;;;;;5050407;28;20209;-80
2022/11/05 01:44:54;;;;;;;16.03;12.90;;;;;;;;;;5049874;28;20229;-80
2022/11/05 01:47:27;;;;;;;19.97;13.53;;;;;;;;;;5036649;28;20254;-80
2022/11/05 01:49:56;;;;;;;18.53;12.57;;;;;;;;;;5049634;28;20255;-80
2022/11/05 01:52:23;;;;;;;18.23;11.97;;;;;;;;;;5048621;28;20205;-79
2022/11/05 01:54:50;;;;;;;18.37;13.13;;;;;;;;;;5049935;28;20202;-80
2022/11/05 01:57:18;;;;;;;15.73;13.50;;;;;;;;;;5050073;28;20198;-80
2022/11/05 01:59:47;;;;;;;18.10;13.50;;;;;;;;;;5049307;28;20685;-79
2022/11/05 02:02:14;;;;;;;17.73;12.43;;;;;;;;;;5052160;28;20206;-80
2022/11/05 02:04:44;;;;;;;16.97;11.77;;;;;;;;;;5053028;28;20241;-80
2022/11/05 02:07:11;;;;;;;18.37;12.30;;;;;;;;;;5053766;28;20205;-80
2022/11/05 02:09:42;;;;;;;17.93;12.80;;;;;;;;;;5053232;28;20210;-80
2022/11/05 02:12:09;;;;;;;15.70;12.57;;;;;;;;;;5053347;28;20198;-79
2022/11/05 02:14:37;;;;;;;17.37;12.67;;;;;;;;;;5052987;28;20205;-80
2022/11/05 02:17:08;;;;;;;14.63;12.77;;;;;;;;;;5053211;28;20673;-80
2022/11/05 02:20:00;;;;;;;17.77;12.30;;;;;;;;;;5052905;28;20206;-80
2022/11/05 02:22:42;;;;;;;21.63;13.73;;;;;;;;;;5040114;28;20209;-80
2022/11/05 02:25:27;;;;;;;17.97;12.87;;;;;;;;;;5053182;28;20696;-80
2022/11/05 02:28:10;;;;;;;14.57;12.73;;;;;;;;;;5052842;28;20214;-80
2022/11/05 02:30:45;;;;;;;18.13;13.00;;;;;;;;;;5052477;28;20741;-80
2022/11/05 02:33:31;;;;;;;14.13;12.37;;;;;;;;;;5053099;28;20220;-80
2022/11/05 02:36:09;;;;;;;14.37;12.53;;;;;;;;;;5052485;28;20280;-80
2022/11/05 02:38:40;;;;;;;16.83;12.83;;;;;;;;;;5052836;28;20205;-80
2022/11/05 02:41:12;;;;;;;19.30;12.83;;;;;;;;;;5052678;28;20205;-80
2022/11/05 02:43:48;;;;;;;17.70;13.60;;;;;;;;;;5052580;28;20560;-80
2022/11/05 02:46:25;;;;;;;18.73;12.77;;;;;;;;;;5052493;28;20720;-80
2022/11/05 02:48:58;;;;;;;17.70;13.00;;;;;;;;;;5052820;28;20204;-80
2022/11/05 02:51:30;;;;;;;14.93;11.53;;;;;;;;;;5052072;28;20212;-80
2022/11/05 02:53:58;;;;;;;16.43;12.87;;;;;;;;;;5052330;28;20683;-80
2022/11/05 02:56:28;;;;;;;12.37;10.40;;;;;;;;;;5052548;28;20212;-80
2022/11/05 02:58:55;;;;;;;16.33;12.77;;;;;;;;;;5052432;28;20229;-80
2022/11/05 03:01:23;;;;;;;13.63;11.77;;;;;;;;;;5052180;28;20210;-80
2022/11/05 03:03:52;;;;;;;15.50;12.20;;;;;;;;;;5052328;28;20233;-80
2022/11/05 03:06:51;;;;;;;20.30;12.50;;;;;;;;;;5052019;28;20292;-80
2022/11/05 03:09:56;;;;;;;15.57;12.77;;;;;;;;;;5051711;28;20217;-81
2022/11/05 03:12:32;;;;;;;17.60;11.60;;;;;;;;;;5051446;28;20206;-80
2022/11/05 03:15:07;;;;;;;15.57;12.93;;;;;;;;;;5051699;28;20247;-80
2022/11/05 03:17:41;;;;;;;14.80;11.87;;;;;;;;;;5052449;28;20201;-80
2022/11/05 03:20:15;;;;;;;15.73;11.43;;;;;;;;;;5051678;28;20213;-80
2022/11/05 03:22:46;;;;;;;14.00;12.27;;;;;;;;;;5052135;28;20680;-80
2022/11/05 03:25:17;;;;;;;17.90;11.87;;;;;;;;;;5051902;28;20237;-80
2022/11/05 03:27:47;;;;;;;18.23;13.17;;;;;;;;;;5051582;28;20202;-80
2022/11/05 03:30:15;;;;;;;17.03;13.30;;;;;;;;;;5051250;28;20209;-80
2022/11/05 03:32:47;;;;;;;22.30;12.53;;;;;;;;;;5051821;28;20209;-80
2022/11/05 03:35:15;;;;;;;18.50;13.30;;;;;;;;;;5051910;28;20206;-80
2022/11/05 03:37:44;;;;;;;16.80;12.40;;;;;;;;;;5051724;28;20296;-80
2022/11/05 03:40:12;;;;;;;18.77;12.33;;;;;;;;;;5051826;28;20217;-79
2022/11/05 03:42:41;;;;;;;18.30;13.53;;;;;;;;;;5051586;28;20198;-79
2022/11/05 03:45:10;;;;;;;15.87;13.07;;;;;;;;;;5051544;28;20202;-80
2022/11/05 03:47:39;;;;;;;19.23;11.33;;;;;;;;;;5051410;28;20202;-80
2022/11/05 03:50:12;;;;;;;18.53;12.17;;;;;;;;;;5051459;28;20225;-80
2022/11/05 03:52:43;;;;;;;18.03;13.03;;;;;;;;;;5052038;28;20253;-81
2022/11/05 03:55:10;;;;;;;17.73;11.87;;;;;;;;;;5050877;28;20202;-80
2022/11/05 03:57:39;;;;;;;13.77;12.10;;;;;;;;;;5051331;28;20213;-80
2022/11/05 04:00:08;;;;;;;17.80;11.93;;;;;;;;;;5051583;28;20213;-80
2022/11/05 04:02:35;;;;;;;17.67;12.90;;;;;;;;;;5051264;28;20201;-80
2022/11/05 04:05:01;;;;;;;17.23;13.40;;;;;;;;;;5050803;28;20226;-80
2022/11/05 04:18:23;;;;;;;17.27;12.90;;;;;;;;;;5052454;28;20201;-80
2022/11/05 04:26:22;;;;;;;16.77;12.67;;;;;;;;;;5050480;28;20746;-79
2022/11/05 04:31:33;;;;;;;14.07;12.13;;;;;;;;;;5036853;28;20213;-79
2022/11/05 04:34:00;;;;;;;15.30;12.63;;;;;;;;;;5050744;28;20267;-79
2022/11/05 04:36:28;;;;;;;16.87;13.87;;;;;;;;;;5050671;28;20247;-79
2022/11/05 04:38:56;;;;;;;17.73;14.33;;;;;;;;;;5050591;28;20734;-79
2022/11/05 04:41:23;;;;;;;27.97;16.73;;;;;;;;;;5050351;28;20209;-79
2022/11/05 04:43:50;;;;;;;33.97;20.20;;;;;;;;;;5049511;28;20205;-80
2022/11/05 04:46:16;;;;;;;25.33;16.17;;;;;;;;;;5049823;28;20229;-79
2022/11/05 04:48:43;;;;;;;17.90;12.57;;;;;;;;;;5049798;28;20205;-80
2022/11/05 04:51:10;;;;;;;15.90;13.23;;;;;;;;;;5049700;28;20267;-79
2022/11/05 04:53:36;;;;;;;16.07;11.07;;;;;;;;;;5049525;28;20210;-80
2022/11/05 04:56:11;;;;;;;18.80;13.93;;;;;;;;;;5049992;28;20234;-79
2022/11/05 04:58:44;;;;;;;15.40;13.30;;;;;;;;;;5049894;28;20197;-79
2022/11/05 05:01:12;;;;;;;17.83;13.33;;;;;;;;;;5044272;28;20202;-80
2022/11/05 05:03:39;;;;;;;19.17;12.87;;;;;;;;;;5049917;28;20233;-80
2022/11/05 05:06:06;;;;;;;17.43;13.03;;;;;;;;;;5049547;28;20627;-80
2022/11/05 05:08:33;;;;;;;16.93;14.10;;;;;;;;;;5050211;28;20209;-80
2022/11/05 05:11:02;;;;;;;17.53;13.97;;;;;;;;;;5050669;28;20646;-80
2022/11/05 05:13:30;;;;;;;14.53;12.30;;;;;;;;;;5050323;28;20280;-77
2022/11/05 05:15:57;;;;;;;19.80;13.17;;;;;;;;;;5049981;28;20202;-77
2022/11/05 05:18:25;;;;;;;16.70;14.57;;;;;;;;;;5050676;28;20703;-77
2022/11/05 05:23:35;;;;;;;18.00;14.20;;;;;;;;;;5050107;28;20286;-79
2022/11/05 05:26:02;;;;;;;16.43;13.47;;;;;;;;;;5050307;28;20217;-79
2022/11/05 05:28:30;;;;;;;23.03;14.50;;;;;;;;;;5049783;28;20646;-80
2022/11/05 05:30:59;;;;;;;18.77;13.60;;;;;;;;;;5050011;28;20216;-79
2022/11/05 05:33:26;;;;;;;18.00;14.20;;;;;;;;;;5050223;28;20289;-79
2022/11/05 05:35:53;;;;;;;18.60;12.70;;;;;;;;;;5049752;28;20639;-79
2022/11/05 05:38:20;;;;;;;18.07;13.53;;;;;;;;;;5052487;28;20202;-76
2022/11/05 05:40:46;;;;;;;17.27;13.63;;;;;;;;;;5053635;28;20688;-76
2022/11/05 05:43:13;;;;;;;18.50;12.57;;;;;;;;;;5053873;28;20633;-77
2022/11/05 05:45:41;;;;;;;17.47;12.60;;;;;;;;;;5052715;28;20228;-77
2022/11/05 05:48:08;;;;;;;24.03;18.20;;;;;;;;;;5053625;28;20217;-76
2022/11/05 05:50:35;;;;;;;31.43;24.00;;;;;;;;;;5053772;28;20631;-76
2022/11/05 05:53:02;;;;;;;30.40;21.37;;;;;;;;;;5045596;28;20207;-77
2022/11/05 05:55:28;;;;;;;28.27;21.50;;;;;;;;;;5042186;28;20631;-77
2022/11/05 05:57:55;;;;;;;24.47;19.67;;;;;;;;;;5052588;28;20680;-77
2022/11/05 06:00:22;;;;;;;31.53;22.83;;;;;;;;;;5051470;28;20676;-77
2022/11/05 06:02:50;;;;;;;32.87;23.73;;;;;;;;;;5052995;28;20194;-77
2022/11/05 06:05:17;;;;;;;22.57;19.27;;;;;;;;;;5052843;28;20241;-77
2022/11/05 06:07:43;;;;;;;24.30;19.17;;;;;;;;;;5048071;28;20704;-77
2022/11/05 06:10:10;;;;;;;24.10;18.63;;;;;;;;;;5052113;28;20683;-77
2022/11/05 06:12:37;;;;;;;24.13;17.83;;;;;;;;;;5052734;28;20660;-77
2022/11/05 06:15:04;;;;;;;20.47;17.47;;;;;;;;;;5052183;28;21062;-77
2022/11/05 06:17:33;;;;;;;26.00;16.60;;;;;;;;;;5052946;28;20676;-77
2022/11/05 06:20:01;;;;;;;21.67;15.73;;;;;;;;;;5052359;28;20198;-78
2022/11/05 06:22:27;;;;;;;19.63;16.17;;;;;;;;;;5051440;28;20194;-78
2022/11/05 06:24:54;;;;;;;25.23;18.07;;;;;;;;;;5052379;28;20206;-77
2022/11/05 06:27:21;;;;;;;24.07;17.33;;;;;;;;;;5051938;28;20259;-78
2022/11/05 06:29:48;;;;;;;22.63;16.63;;;;;;;;;;5053071;28;20197;-78
2022/11/05 06:32:14;;;;;;;22.73;18.10;;;;;;;;;;5051036;28;20651;-78
2022/11/05 06:34:41;;;;;;;23.30;18.70;;;;;;;;;;5052289;28;20684;-78
2022/11/05 06:37:09;;;;;;;25.23;19.33;;;;;;;;;;5053238;28;20210;-78
2022/11/05 06:39:36;;;;;;;26.80;20.50;;;;;;;;;;5052281;28;20206;-78
2022/11/05 06:42:04;;;;;;;32.87;23.70;;;;;;;;;;5052968;28;20202;-78
2022/11/05 06:44:30;;;;;;;38.73;29.37;;;;;;;;;;5052891;28;20263;-78
2022/11/05 06:46:57;;;;;;;32.13;22.80;;;;;;;;;;5062701;28;20276;-78
2022/11/05 06:49:24;;;;;;;24.43;19.50;;;;;;;;;;5052356;28;20213;-78
2022/11/05 06:51:51;;;;;;;28.43;20.23;;;;;;;;;;5052508;28;20718;-78
2022/11/05 06:54:19;;;;;;;27.00;18.67;;;;;;;;;;5052266;28;20684;-78
2022/11/05 06:56:46;;;;;;;24.80;16.67;;;;;;;;;;5052391;28;20209;-78
2022/11/05 06:59:12;;;;;;;23.50;17.93;;;;;;;;;;5051931;28;20206;-78
2022/11/05 07:01:39;;;;;;;23.73;18.43;;;;;;;;;;5052273;28;20202;-78
2022/11/05 07:04:06;;;;;;;19.77;17.03;;;;;;;;;;5052167;28;20237;-78
2022/11/05 07:06:33;;;;;;;30.73;18.70;;;;;;;;;;5052037;28;20221;-78
2022/11/05 07:08:59;;;;;;;22.87;17.30;;;;;;;;;;5052390;28;20208;-78
2022/11/05 07:11:27;;;;;;;23.20;18.97;;;;;;;;;;5051978;28;20209;-78
2022/11/05 07:13:54;;;;;;;21.87;16.03;;;;;;;;;;5051813;28;20639;-79
2022/11/05 07:16:21;;;;;;;21.37;14.97;;;;;;;;;;5052032;28;20206;-79
2022/11/05 07:18:48;;;;;;;17.33;15.50;;;;;;;;;;5051688;28;20202;-78
2022/11/05 07:21:14;;;;;;;23.43;15.13;;;;;;;;;;5050797;28;20201;-78
2022/11/05 07:23:41;;;;;;;20.83;15.57;;;;;;;;;;5050552;28;20301;-78
2022/11/05 07:26:08;;;;;;;18.30;15.00;;;;;;;;;;5052008;28;20279;-78
2022/11/05 07:28:36;;;;;;;21.73;15.87;;;;;;;;;;5050583;28;20711;-78
2022/11/05 07:31:03;;;;;;;24.03;16.70;;;;;;;;;;5051822;28;20643;-79
2022/11/05 07:33:29;;;;;;;21.13;16.20;;;;;;;;;;5051786;28;20201;-78
2022/11/05 07:35:57;;;;;;;34.87;26.43;;;;;;;;;;5051323;28;20683;-78
2022/11/05 07:38:24;;;;;;;24.83;21.03;;;;;;;;;;5051600;28;20723;-78
2022/11/05 07:40:51;;;;;;;24.27;19.47;;;;;;;;;;5051241;28;20210;-78
2022/11/05 07:43:17;;;;;;;22.33;18.47;;;;;;;;;;5051689;28;20213;-78
2022/11/05 07:45:46;;;;;;;25.80;17.20;;;;;;;;;;5051266;28;20204;-78
2022/11/05 07:48:13;;;;;;;22.00;16.97;;;;;;;;;;5051654;28;20313;-78
2022/11/05 07:50:40;;;;;;;23.43;18.40;;;;;;;;;;5051054;28;20206;-78
2022/11/05 07:53:09;;;;;;;23.97;17.73;;;;;;;;;;5051353;28;20213;-78
2022/11/05 07:55:36;;;;;;;21.53;18.07;;;;;;;;;;5051411;28;20202;-78
2022/11/05 07:58:03;;;;;;;25.10;19.17;;;;;;;;;;5051862;28;20248;-78
2022/11/05 08:00:30;;;;;;;21.67;17.37;;;;;;;;;;5050403;28;20555;-80
2022/11/05 08:02:59;;;;;;;21.63;18.23;;;;;;;;;;5051188;28;20202;-78
2022/11/05 08:05:26;;;;;;;20.37;17.10;;;;;;;;;;5050765;28;20210;-78
2022/11/05 08:07:53;;;;;;;23.40;16.23;;;;;;;;;;5051469;28;20645;-79
2022/11/05 08:10:20;;;;;;;23.07;16.70;;;;;;;;;;5050921;28;20202;-78
2022/11/05 08:12:47;;;;;;;23.90;16.97;;;;;;;;;;5051279;28;20292;-78
2022/11/05 08:15:14;;;;;;;23.87;17.27;;;;;;;;;;5051015;28;20199;-78
2022/11/05 08:17:41;;;;;;;19.83;16.90;;;;;;;;;;5050910;28;20707;-78
2022/11/05 08:20:11;;;;;;;23.77;17.03;;;;;;;;;;5050648;28;20225;-78
2022/11/05 08:22:37;;;;;;;21.40;17.13;;;;;;;;;;5050604;28;20205;-78
2022/11/05 08:25:05;;;;;;;20.77;16.43;;;;;;;;;;5050595;28;20194;-78
2022/11/05 08:27:32;;;;;;;20.90;15.63;;;;;;;;;;5050680;28;20704;-78
2022/11/05 08:29:59;;;;;;;21.40;17.80;;;;;;;;;;5050642;28;20205;-78
2022/11/05 08:32:26;;;;;;;27.00;18.17;;;;;;;;;;5050237;28;20236;-79
2022/11/05 08:34:52;;;;;;;21.97;16.30;;;;;;;;;;5050662;28;20203;-78
2022/11/05 08:37:20;;;;;;;27.73;17.63;;;;;;;;;;5051024;28;20205;-78
2022/11/05 08:39:47;;;;;;;23.47;17.73;;;;;;;;;;5050459;28;20731;-78
2022/11/05 08:42:14;;;;;;;22.20;16.20;;;;;;;;;;5050974;28;20217;-78
2022/11/05 08:44:41;;;;;;;21.97;16.60;;;;;;;;;;5050483;28;20206;-78
2022/11/05 08:47:08;;;;;;;22.13;17.47;;;;;;;;;;5050276;28;20232;-78
2022/11/05 08:49:34;;;;;;;19.43;15.77;;;;;;;;;;5050696;28;20210;-78
2022/11/05 08:52:01;;;;;;;19.23;15.90;;;;;;;;;;5050715;28;20629;-78
2022/11/05 08:54:29;;;;;;;23.27;16.33;;;;;;;;;;5050243;28;20681;-79
2022/11/05 08:56:56;;;;;;;20.30;16.73;;;;;;;;;;5050374;28;20646;-79
2022/11/05 08:59:23;;;;;;;24.73;17.43;;;;;;;;;;5050414;28;20211;-79
2022/11/05 09:01:50;;;;;;;27.17;17.67;;;;;;;;;;5050317;28;20200;-79
2022/11/05 09:04:17;;;;;;;23.60;18.30;;;;;;;;;;5050357;28;20234;-79
2022/11/05 09:06:43;;;;;;;28.30;18.60;;;;;;;;;;5050857;28;20236;-79
2022/11/05 09:09:10;;;;;;;21.87;17.87;;;;;;;;;;5050373;28;20205;-79
2022/11/05 09:11:38;;;;;;;27.20;16.80;;;;;;;;;;5053204;28;20657;-79
2022/11/05 09:14:05;;;;;;;26.00;18.20;;;;;;;;;;5053932;28;20646;-79
2022/11/05 09:16:35;;;;;;;25.33;18.70;;;;;;;;;;5054179;28;20713;-79
2022/11/05 09:19:03;;;;;;;26.67;19.47;;;;;;;;;;5052803;28;20201;-79
2022/11/05 09:21:30;;;;;;;23.43;18.00;;;;;;;;;;5053281;28;20205;-79
2022/11/05 09:23:56;;;;;;;21.40;16.70;;;;;;;;;;5054249;28;20269;-79
2022/11/05 09:26:23;;;;;;;28.23;19.27;;;;;;;;;;5051209;28;20216;-79
2022/11/05 09:28:52;;;;;;;23.63;18.53;;;;;;;;;;5052632;28;20206;-79
2022/11/05 09:31:19;;;;;;;23.27;17.23;;;;;;;;;;5053159;28;20224;-79
2022/11/05 09:33:46;;;;;;;26.60;18.23;;;;;;;;;;5051807;28;20203;-79
2022/11/05 09:36:13;;;;;;;21.93;17.67;;;;;;;;;;5053803;28;20201;-79
2022/11/05 09:38:39;;;;;;;24.50;18.13;;;;;;;;;;5053788;28;20197;-78
2022/11/05 09:41:08;;;;;;;26.40;18.03;;;;;;;;;;5053607;28;20252;-79
2022/11/05 09:43:43;;;;;;;23.33;17.87;;;;;;;;;;5052318;28;20216;-79
2022/11/05 09:46:15;;;;;;;28.93;18.20;;;;;;;;;;5042510;28;20702;-78
2022/11/05 09:48:42;;;;;;;23.17;18.90;;;;;;;;;;5053885;28;20657;-78
2022/11/05 09:51:11;;;;;;;24.13;17.80;;;;;;;;;;5053812;28;20563;-79
2022/11/05 09:53:40;;;;;;;30.33;18.70;;;;;;;;;;5053614;28;20643;-79
2022/11/05 09:56:18;;;;;;;23.50;17.83;;;;;;;;;;5053302;28;20216;-78
2022/11/05 09:58:47;;;;;;;24.57;16.77;;;;;;;;;;5053436;28;20235;-79
2022/11/05 10:01:21;;;;;;;22.83;18.00;;;;;;;;;;5052587;28;20214;-79
2022/11/05 10:03:52;;;;;;;28.87;18.20;;;;;;;;;;5052172;28;20237;-78
2022/11/05 10:06:22;;;;;;;25.93;17.60;;;;;;;;;;5039036;28;20225;-79
2022/11/05 10:08:51;;;;;;;27.40;19.10;;;;;;;;;;5052348;28;20232;-79
2022/11/05 10:11:21;;;;;;;24.70;18.00;;;;;;;;;;5053084;28;20217;-78
2022/11/05 10:13:50;;;;;;;30.70;18.37;;;;;;;;;;5053616;28;20210;-79
2022/11/05 10:16:24;;;;;;;25.27;17.07;;;;;;;;;;5052564;28;20198;-77
2022/11/05 10:18:54;;;;;;;25.13;18.37;;;;;;;;;;5047069;28;20212;-76
2022/11/05 10:21:21;;;;;;;23.83;16.00;;;;;;;;;;5052823;28;20205;-76
2022/11/05 10:23:48;;;;;;;22.60;15.83;;;;;;;;;;5052518;28;20591;-76
2022/11/05 10:26:22;;;;;;;21.57;16.60;;;;;;;;;;5052504;28;20202;-76
2022/11/05 10:28:49;;;;;;;25.67;16.47;;;;;;;;;;5052887;28;20249;-77
2022/11/05 10:31:20;;;;;;;16.63;13.23;;;;;;;;;;5052142;28;20206;-77
2022/11/05 10:33:51;;;;;;;21.83;14.30;;;;;;;;;;5052902;28;20206;-76
2022/11/05 10:36:22;;;;;;;20.77;13.57;;;;;;;;;;5052521;28;20209;-76
2022/11/05 10:38:49;;;;;;;16.97;13.90;;;;;;;;;;5052530;28;20756;-76
2022/11/05 10:41:31;;;;;;;16.40;13.50;;;;;;;;;;5052752;28;20206;-76
2022/11/05 10:44:04;;;;;;;15.60;13.47;;;;;;;;;;5052700;28;20211;-76
2022/11/05 10:46:38;;;;;;;18.57;12.70;;;;;;;;;;5052627;28;20628;-77
2022/11/05 10:49:17;;;;;;;18.93;13.43;;;;;;;;;;5052451;28;20229;-76
2022/11/05 10:51:44;;;;;;;15.43;12.27;;;;;;;;;;5052572;28;20284;-76
2022/11/05 10:54:15;;;;;;;13.93;11.13;;;;;;;;;;5052401;28;20259;-77
2022/11/05 10:56:42;;;;;;;16.33;11.47;;;;;;;;;;5051727;28;20206;-77
2022/11/05 10:59:20;;;;;;;18.27;9.47;;;;;;;;;;5050236;28;20213;-77
2022/11/05 11:01:47;;;;;;;11.40;9.47;;;;;;;;;;5050443;28;20229;-76
2022/11/05 11:04:20;;;;;;;11.80;9.63;;;;;;;;;;5051436;28;20221;-77
2022/11/05 11:06:53;;;;;;;17.27;8.40;;;;;;;;;;5050875;28;20198;-77
2022/11/05 11:09:23;;;;;;;12.83;9.50;;;;;;;;;;5051007;28;20202;-77
2022/11/05 11:11:57;;;;;;;11.03;9.27;;;;;;;;;;5051113;28;20288;-77
2022/11/05 11:14:24;;;;;;;14.40;10.37;;;;;;;;;;5050834;28;20762;-77
2022/11/05 11:16:56;;;;;;;14.70;11.60;;;;;;;;;;5051904;28;20198;-76
2022/11/05 11:19:29;;;;;;;15.93;11.60;;;;;;;;;;5050352;28;20198;-77
2022/11/05 11:22:19;;;;;;;14.47;11.40;;;;;;;;;;5051642;28;20216;-76
2022/11/05 11:24:48;;;;;;;13.40;11.63;;;;;;;;;;5048245;28;20205;-74
2022/11/05 11:27:18;;;;;;;17.13;11.70;;;;;;;;;;5050303;28;20664;-75
2022/11/05 11:29:49;;;;;;;22.30;10.80;;;;;;;;;;5051120;28;20202;-75
2022/11/05 11:32:19;;;;;;;14.43;11.47;;;;;;;;;;5051118;28;20260;-75
2022/11/05 11:34:50;;;;;;;22.37;11.60;;;;;;;;;;5050455;28;20197;-75
2022/11/05 11:37:20;;;;;;;13.73;10.90;;;;;;;;;;5050904;28;20224;-75
2022/11/05 11:39:50;;;;;;;15.27;12.90;;;;;;;;;;5050517;28;20194;-76
2022/11/05 11:42:20;;;;;;;16.57;12.07;;;;;;;;;;5049534;28;20213;-76
2022/11/05 11:44:48;;;;;;;13.10;11.73;;;;;;;;;;5049650;28;20209;-76
2022/11/05 11:47:17;;;;;;;18.80;12.23;;;;;;;;;;5049306;28;20637;-76
2022/11/05 11:49:49;;;;;;;13.80;12.17;;;;;;;;;;5050939;28;20209;-76
2022/11/05 11:52:18;;;;;;;16.50;11.40;;;;;;;;;;5050643;28;20202;-76
2022/11/05 11:54:54;;;;;;;24.47;12.47;;;;;;;;;;5087424;27;20572;-77
2022/11/05 11:57:23;;;;;;;15.07;11.60;;;;;;;;;;5067207;28;20197;-77
2022/11/05 11:59:51;;;;;;;12.67;11.30;;;;;;;;;;5066945;28;20655;-77
2022/11/05 12:02:52;;;;;;;14.63;11.87;;;;;;;;;;5067345;28;20205;-77
2022/11/05 12:05:30;;;;;;;14.53;10.93;;;;;;;;;;5064257;28;20204;-77
2022/11/05 12:07:59;;;;;;;20.17;12.00;;;;;;;;;;5059795;28;20209;-77
2022/11/05 12:10:52;;;;;;;13.73;11.43;;;;;;;;;;5067329;28;20202;-77
2022/11/05 12:13:46;;;;;;;16.63;12.40;;;;;;;;;;5066975;28;20584;-76
2022/11/05 12:16:21;;;;;;;12.80;10.40;;;;;;;;;;5066565;28;20259;-77
2022/11/05 12:18:54;;;;;;;17.30;11.03;;;;;;;;;;5065600;28;20208;-77
2022/11/05 12:21:30;;;;;;;22.33;13.73;;;;;;;;;;5066476;28;20267;-77
2022/11/05 12:24:23;;;;;;;20.23;13.83;;;;;;;;;;5066504;28;20262;-77
2022/11/05 12:26:57;;;;;;;13.60;11.77;;;;;;;;;;5064949;28;20669;-77
2022/11/05 12:29:50;;;;;;;17.83;12.90;;;;;;;;;;5066861;28;20563;-77
2022/11/05 12:32:53;;;;;;;16.97;12.10;;;;;;;;;;5066563;28;20228;-77
2022/11/05 12:35:39;;;;;;;18.67;12.47;;;;;;;;;;5056095;28;20197;-77
2022/11/05 12:38:12;;;;;;;18.77;12.33;;;;;;;;;;5066817;28;20231;-77
2022/11/05 12:40:50;;;;;;;14.93;13.30;;;;;;;;;;5066700;28;20209;-77
2022/11/05 12:43:24;;;;;;;16.30;12.67;;;;;;;;;;5066457;28;20209;-77
2022/11/05 12:45:57;;;;;;;19.43;13.40;;;;;;;;;;5066842;28;20212;-77
2022/11/05 12:48:45;;;;;;;23.33;13.17;;;;;;;;;;5066920;28;20197;-77
2022/11/05 12:51:23;;;;;;;13.90;11.97;;;;;;;;;;5059825;28;20206;-77
2022/11/05 12:54:00;;;;;;;19.77;14.23;;;;;;;;;;5066167;28;20305;-77
2022/11/05 12:56:33;;;;;;;19.23;12.83;;;;;;;;;;5066392;28;20201;-77
2022/11/05 12:59:05;;;;;;;20.00;12.93;;;;;;;;;;5066423;28;20204;-77
2022/11/05 13:01:36;;;;;;;15.23;12.90;;;;;;;;;;5066115;28;20198;-76
2022/11/05 13:04:08;;;;;;;19.47;11.97;;;;;;;;;;5065899;28;20204;-77
2022/11/05 13:06:39;;;;;;;15.10;13.50;;;;;;;;;;5052828;28;20198;-77
2022/11/05 13:09:14;;;;;;;17.90;13.27;;;;;;;;;;5052998;28;20252;-77
2022/11/05 13:11:45;;;;;;;18.10;14.33;;;;;;;;;;5053126;28;20271;-76
2022/11/05 13:14:16;;;;;;;17.80;14.50;;;;;;;;;;5052867;28;20298;-77
2022/11/05 13:16:45;;;;;;;17.43;12.97;;;;;;;;;;5053131;28;20205;-76
2022/11/05 13:19:16;;;;;;;17.67;14.33;;;;;;;;;;5053204;28;20205;-76
2022/11/05 13:21:50;;;;;;;18.33;14.10;;;;;;;;;;5052506;28;20673;-76
2022/11/05 13:24:19;;;;;;;20.50;13.37;;;;;;;;;;5052321;28;20233;-76
2022/11/05 13:26:50;;;;;;;21.73;14.27;;;;;;;;;;5052722;28;20213;-76
2022/11/05 13:29:25;;;;;;;19.43;13.63;;;;;;;;;;5052567;28;20683;-76
2022/11/05 13:31:56;;;;;;;17.23;15.33;;;;;;;;;;5052573;28;20680;-76
2022/11/05 13:34:23;;;;;;;25.37;14.57;;;;;;;;;;5052504;28;20260;-76
2022/11/05 13:39:44;;;;;;;14.10;12.57;;;;;;;;;;5052364;28;20213;-76
2022/11/05 13:42:43;;;;;;;25.10;14.47;;;;;;;;;;5051384;28;20206;-76
2022/11/05 13:45:43;;;;;;;16.77;13.70;;;;;;;;;;5048192;28;20569;-77
2022/11/05 13:48:45;;;;;;;21.77;15.10;;;;;;;;;;5045031;28;20198;-76
2022/11/05 13:51:39;;;;;;;25.23;16.37;;;;;;;;;;5050993;28;20597;-76
2022/11/05 13:54:32;;;;;;;17.20;14.53;;;;;;;;;;5042278;28;20237;-76
2022/11/05 13:57:09;;;;;;;24.23;15.77;;;;;;;;;;5052013;28;20207;-76
2022/11/05 13:59:57;;;;;;;20.17;15.13;;;;;;;;;;5051623;28;20206;-76
2022/11/05 14:02:25;;;;;;;20.20;14.27;;;;;;;;;;5052068;28;20206;-76
2022/11/05 14:04:54;;;;;;;21.07;15.30;;;;;;;;;;5052258;28;20198;-76
2022/11/05 14:07:24;;;;;;;22.23;15.57;;;;;;;;;;5051671;28;20593;-78
2022/11/05 14:09:55;;;;;;;19.37;15.07;;;;;;;;;;5051931;28;20202;-78
2022/11/05 14:12:25;;;;;;;29.83;16.17;;;;;;;;;;5051413;28;20202;-78
2022/11/05 14:14:55;;;;;;;25.40;18.40;;;;;;;;;;5051752;28;20221;-77
2022/11/05 14:17:32;;;;;;;19.20;15.07;;;;;;;;;;5036832;28;20225;-77
2022/11/05 14:20:23;;;;;;;25.20;17.23;;;;;;;;;;5051589;28;20208;-77
2022/11/05 14:22:52;;;;;;;27.77;14.70;;;;;;;;;;5050714;28;20202;-78
2022/11/05 14:25:58;;;;;;;19.87;15.30;;;;;;;;;;5051155;28;20209;-77
2022/11/05 14:28:40;;;;;;;18.17;14.17;;;;;;;;;;5051953;28;20197;-78
2022/11/05 14:31:27;;;;;;;25.10;16.50;;;;;;;;;;5051020;28;20228;-77
2022/11/05 14:34:04;;;;;;;20.73;15.73;;;;;;;;;;5051496;28;20308;-77
2022/11/05 14:36:33;;;;;;;25.20;17.33;;;;;;;;;;5051297;28;20197;-78
2022/11/05 14:39:21;;;;;;;20.57;18.00;;;;;;;;;;5051569;28;20209;-78
2022/11/05 14:41:55;;;;;;;22.23;17.80;;;;;;;;;;5037826;28;20209;-78
2022/11/05 14:44:23;;;;;;;22.63;16.83;;;;;;;;;;5051368;28;20592;-78
2022/11/05 14:46:52;;;;;;;22.83;15.63;;;;;;;;;;5050938;28;20619;-77
2022/11/05 14:49:21;;;;;;;21.23;15.07;;;;;;;;;;5049218;28;20198;-78
2022/11/05 14:51:49;;;;;;;19.33;14.63;;;;;;;;;;5049150;28;20260;-79
2022/11/05 14:54:23;;;;;;;20.30;17.17;;;;;;;;;;5048647;28;20241;-77
2022/11/05 14:56:51;;;;;;;21.57;15.63;;;;;;;;;;5050485;28;20633;-77
2022/11/05 14:59:59;;;;;;;22.90;17.00;;;;;;;;;;5049974;28;20381;-77
2022/11/05 15:02:28;;;;;;;26.37;19.50;;;;;;;;;;5049967;28;20209;-78
2022/11/05 15:05:27;;;;;;;37.23;25.70;;;;;;;;;;5049617;28;20202;-78
2022/11/05 15:07:57;;;;;;;22.33;16.80;;;;;;;;;;5048954;28;20213;-77
2022/11/05 15:10:29;;;;;;;20.83;15.80;;;;;;;;;;5049865;28;20220;-78
2022/11/05 15:13:02;;;;;;;22.77;17.60;;;;;;;;;;5037554;28;20209;-78
2022/11/05 15:15:32;;;;;;;19.87;14.37;;;;;;;;;;5050771;28;20230;-77
2022/11/05 15:18:01;;;;;;;21.97;14.57;;;;;;;;;;5048360;28;20209;-77
2022/11/05 15:20:36;;;;;;;18.93;15.20;;;;;;;;;;5048453;28;20208;-77
2022/11/05 15:23:05;;;;;;;23.37;16.67;;;;;;;;;;5049953;28;20208;-77
2022/11/05 15:25:41;;;;;;;20.40;15.73;;;;;;;;;;5050099;28;20688;-77